Aeroporto :
LOGIN :

Iscrizione | Disclaimer

   EN    FR    IT 

 










Sommario :    VFR   VFR Marginale   IFR   IFR Intensivo   IFR Molto Intensivo
Visibilità : 
Base nubi : 
>= 8 km
>= 3000ft
5 / 8 km
1000 / 3000 ft
1500m / 5 km
500 / 1000 ft
800 / 1500m
200 / 500 ft
< 800m
< 200 ft
Simboli :   Temporali  Nebbia  Neve Forte  Precipitazioni Forti  Vento > 20 kt
SIGMETs :   Varie  Temporali  Ghiacco  Turbolenza  Onda orograficha  Ceneri Vulcaniche






- Altitudine del aeroporto : 15 ft
- Codice IATA : BHD


EGAC - George Best Belfast City

ULTIMO METAR :
  • 012050Z AUTO 26007KT 9999 -RA BKN012/// BKN016/// 08/06 Q1020

METARs OBSOLETI :
  • 012020Z AUTO 26010KT 230V290 9999 BKN014/// 08/06 Q1020
  • 011950Z AUTO 25010KT 9999 BKN015/// 08/05 Q1021
  • 011920Z AUTO 26009KT 9999 BKN017/// OVC024/// 08/05 Q1021
  • 011850Z AUTO 23005KT 180V280 9999 BKN014/// OVC021/// 08/05 Q1021
  • 011820Z AUTO 25005KT 190V310 9999 OVC019/// 09/05 Q1021

TAF TAF EGAC
Valido dal 01 a 18 ore il 01 a 22 ore UTC


011704Z 0118/0122 27009KT 9999 FEW015 SCT025
BECMG 0118/0121 BKN006
PROB40
TEMPO 0118/0121 4000 RADZ
PROB30 0121/0122 SCT030
ATIS : +44 02890 935 124



MetMap, La meteo Aeronautica in un colpo d'occhio ! - Copyright ORBIFLY Dicembre 2007 - Disclaimer

ORBIFLY MET'MAP TEAM :

Programmazione e sviluppo : Alexandra Zaïnal
Concezione : Baudouin d'Aumeries
Aiuto per la programmazione : Marc-Olivier Méhu
Supporto tecnico e logistico : Manuel Goepfert
Aiuto per la traduzione : Arnaldo La Scala

Contatto : metmap@orbifly.com




FONTI E CREDITI :

   NOAA